sensor_id;sensor_type;location;lat;lon;timestamp;P1;durP1;ratioP1;P2;durP2;ratioP2
61569;SDS011;47462;59.172;17.196;2022-08-19T00:00:46;18.08;;;15.13;;
61569;SDS011;47462;59.172;17.196;2022-08-19T00:03:11;17.33;;;15.27;;
61569;SDS011;47462;59.172;17.196;2022-08-19T00:05:36;17.98;;;16.17;;
61569;SDS011;47462;59.172;17.196;2022-08-19T00:08:02;18.20;;;14.23;;
61569;SDS011;47462;59.172;17.196;2022-08-19T00:10:28;18.35;;;15.07;;
61569;SDS011;47462;59.172;17.196;2022-08-19T00:12:53;16.27;;;14.68;;
61569;SDS011;47462;59.172;17.196;2022-08-19T00:15:19;19.23;;;14.95;;
61569;SDS011;47462;59.172;17.196;2022-08-19T00:17:46;18.33;;;15.65;;
61569;SDS011;47462;59.172;17.196;2022-08-19T00:20:13;23.15;;;16.38;;
61569;SDS011;47462;59.172;17.196;2022-08-19T00:22:42;17.77;;;15.93;;
61569;SDS011;47462;59.172;17.196;2022-08-19T00:25:08;20.08;;;15.40;;
61569;SDS011;47462;59.172;17.196;2022-08-19T00:27:34;21.40;;;16.55;;
61569;SDS011;47462;59.172;17.196;2022-08-19T00:29:59;21.02;;;15.35;;
61569;SDS011;47462;59.172;17.196;2022-08-19T00:32:28;17.88;;;15.98;;
61569;SDS011;47462;59.172;17.196;2022-08-19T00:34:53;19.20;;;15.43;;
61569;SDS011;47462;59.172;17.196;2022-08-19T00:37:19;19.70;;;15.95;;
61569;SDS011;47462;59.172;17.196;2022-08-19T00:39:51;19.25;;;15.65;;
61569;SDS011;47462;59.172;17.196;2022-08-19T00:42:18;21.60;;;16.33;;
61569;SDS011;47462;59.172;17.196;2022-08-19T00:44:45;23.70;;;15.73;;
61569;SDS011;47462;59.172;17.196;2022-08-19T00:47:11;20.55;;;16.77;;
61569;SDS011;47462;59.172;17.196;2022-08-19T00:49:40;21.35;;;15.93;;
61569;SDS011;47462;59.172;17.196;2022-08-19T00:52:11;21.50;;;16.45;;
61569;SDS011;47462;59.172;17.196;2022-08-19T00:54:39;21.48;;;16.38;;
61569;SDS011;47462;59.172;17.196;2022-08-19T00:57:07;20.50;;;16.33;;
61569;SDS011;47462;59.172;17.196;2022-08-19T00:59:35;19.60;;;16.20;;
61569;SDS011;47462;59.172;17.196;2022-08-19T01:02:04;21.65;;;16.25;;
61569;SDS011;47462;59.172;17.196;2022-08-19T01:04:29;21.95;;;16.67;;
61569;SDS011;47462;59.172;17.196;2022-08-19T01:06:55;24.42;;;16.83;;
61569;SDS011;47462;59.172;17.196;2022-08-19T01:09:21;21.55;;;16.25;;
61569;SDS011;47462;59.172;17.196;2022-08-19T01:11:47;18.95;;;17.05;;
61569;SDS011;47462;59.172;17.196;2022-08-19T01:14:12;25.95;;;17.85;;
61569;SDS011;47462;59.172;17.196;2022-08-19T01:16:39;23.30;;;17.05;;
61569;SDS011;47462;59.172;17.196;2022-08-19T01:19:11;19.45;;;16.55;;
61569;SDS011;47462;59.172;17.196;2022-08-19T01:21:52;19.55;;;17.48;;
61569;SDS011;47462;59.172;17.196;2022-08-19T01:24:26;23.50;;;18.35;;
61569;SDS011;47462;59.172;17.196;2022-08-19T01:26:51;22.33;;;17.25;;
61569;SDS011;47462;59.172;17.196;2022-08-19T01:29:16;23.75;;;17.63;;
61569;SDS011;47462;59.172;17.196;2022-08-19T01:31:42;20.13;;;17.50;;
61569;SDS011;47462;59.172;17.196;2022-08-19T01:34:07;23.10;;;16.90;;
61569;SDS011;47462;59.172;17.196;2022-08-19T01:36:38;25.02;;;17.65;;
61569;SDS011;47462;59.172;17.196;2022-08-19T01:39:09;19.77;;;17.67;;
61569;SDS011;47462;59.172;17.196;2022-08-19T01:41:38;26.65;;;18.23;;
61569;SDS011;47462;59.172;17.196;2022-08-19T01:44:05;28.30;;;18.92;;
61569;SDS011;47462;59.172;17.196;2022-08-19T01:46:32;25.55;;;18.88;;
61569;SDS011;47462;59.172;17.196;2022-08-19T01:48:58;23.45;;;18.73;;
61569;SDS011;47462;59.172;17.196;2022-08-19T01:51:25;22.55;;;17.25;;
61569;SDS011;47462;59.172;17.196;2022-08-19T01:53:50;28.40;;;19.10;;
61569;SDS011;47462;59.172;17.196;2022-08-19T01:56:17;30.83;;;19.10;;
61569;SDS011;47462;59.172;17.196;2022-08-19T01:58:45;23.50;;;18.77;;
61569;SDS011;47462;59.172;17.196;2022-08-19T02:01:17;22.83;;;18.52;;
61569;SDS011;47462;59.172;17.196;2022-08-19T02:03:42;25.27;;;18.98;;
61569;SDS011;47462;59.172;17.196;2022-08-19T02:06:08;24.13;;;18.42;;
61569;SDS011;47462;59.172;17.196;2022-08-19T02:08:35;25.35;;;19.55;;
61569;SDS011;47462;59.172;17.196;2022-08-19T02:11:02;28.20;;;21.88;;
61569;SDS011;47462;59.172;17.196;2022-08-19T02:13:28;27.20;;;19.88;;
61569;SDS011;47462;59.172;17.196;2022-08-19T02:15:54;26.60;;;19.10;;
61569;SDS011;47462;59.172;17.196;2022-08-19T02:18:19;25.45;;;19.65;;
61569;SDS011;47462;59.172;17.196;2022-08-19T02:20:45;23.65;;;19.00;;
61569;SDS011;47462;59.172;17.196;2022-08-19T02:23:13;26.15;;;20.55;;
61569;SDS011;47462;59.172;17.196;2022-08-19T02:25:39;33.75;;;20.42;;
61569;SDS011;47462;59.172;17.196;2022-08-19T02:28:05;25.17;;;19.92;;
61569;SDS011;47462;59.172;17.196;2022-08-19T02:30:32;29.45;;;19.85;;
61569;SDS011;47462;59.172;17.196;2022-08-19T02:32:57;27.45;;;21.60;;
61569;SDS011;47462;59.172;17.196;2022-08-19T02:35:23;26.65;;;20.70;;
61569;SDS011;47462;59.172;17.196;2022-08-19T02:37:49;26.80;;;20.95;;
61569;SDS011;47462;59.172;17.196;2022-08-19T02:40:34;23.80;;;20.00;;
61569;SDS011;47462;59.172;17.196;2022-08-19T02:43:00;28.73;;;20.55;;
61569;SDS011;47462;59.172;17.196;2022-08-19T02:45:27;29.50;;;20.45;;
61569;SDS011;47462;59.172;17.196;2022-08-19T02:47:56;24.48;;;19.77;;
61569;SDS011;47462;59.172;17.196;2022-08-19T02:50:22;25.48;;;20.10;;
61569;SDS011;47462;59.172;17.196;2022-08-19T02:52:47;31.60;;;22.98;;
61569;SDS011;47462;59.172;17.196;2022-08-19T02:55:13;25.98;;;19.77;;
61569;SDS011;47462;59.172;17.196;2022-08-19T02:57:38;23.85;;;19.85;;
61569;SDS011;47462;59.172;17.196;2022-08-19T03:00:05;27.92;;;20.20;;
61569;SDS011;47462;59.172;17.196;2022-08-19T03:02:32;24.02;;;19.75;;
61569;SDS011;47462;59.172;17.196;2022-08-19T03:04:57;25.25;;;19.23;;
61569;SDS011;47462;59.172;17.196;2022-08-19T03:07:22;26.75;;;20.75;;
61569;SDS011;47462;59.172;17.196;2022-08-19T03:09:48;24.48;;;20.05;;
61569;SDS011;47462;59.172;17.196;2022-08-19T03:12:13;29.50;;;21.08;;
61569;SDS011;47462;59.172;17.196;2022-08-19T03:14:38;27.40;;;20.70;;
61569;SDS011;47462;59.172;17.196;2022-08-19T03:17:04;27.10;;;20.48;;
61569;SDS011;47462;59.172;17.196;2022-08-19T03:19:30;24.50;;;20.42;;
61569;SDS011;47462;59.172;17.196;2022-08-19T03:21:56;28.80;;;20.88;;
61569;SDS011;47462;59.172;17.196;2022-08-19T03:24:22;28.55;;;21.00;;
61569;SDS011;47462;59.172;17.196;2022-08-19T03:26:49;31.08;;;22.10;;
61569;SDS011;47462;59.172;17.196;2022-08-19T03:29:18;25.70;;;21.35;;
61569;SDS011;47462;59.172;17.196;2022-08-19T03:31:44;27.05;;;20.40;;
61569;SDS011;47462;59.172;17.196;2022-08-19T03:34:11;31.42;;;21.73;;
61569;SDS011;47462;59.172;17.196;2022-08-19T03:36:38;29.08;;;21.35;;
61569;SDS011;47462;59.172;17.196;2022-08-19T03:39:04;27.13;;;21.55;;
61569;SDS011;47462;59.172;17.196;2022-08-19T03:41:31;32.03;;;22.92;;
61569;SDS011;47462;59.172;17.196;2022-08-19T03:44:01;29.33;;;21.92;;
61569;SDS011;47462;59.172;17.196;2022-08-19T03:46:28;30.35;;;22.45;;
61569;SDS011;47462;59.172;17.196;2022-08-19T03:48:56;29.38;;;22.38;;
61569;SDS011;47462;59.172;17.196;2022-08-19T03:51:27;29.60;;;22.00;;
61569;SDS011;47462;59.172;17.196;2022-08-19T03:53:56;27.73;;;22.73;;
61569;SDS011;47462;59.172;17.196;2022-08-19T03:56:23;31.35;;;22.00;;
61569;SDS011;47462;59.172;17.196;2022-08-19T03:58:50;27.58;;;21.52;;
61569;SDS011;47462;59.172;17.196;2022-08-19T04:01:18;28.58;;;21.83;;
61569;SDS011;47462;59.172;17.196;2022-08-19T04:03:46;34.67;;;23.25;;
61569;SDS011;47462;59.172;17.196;2022-08-19T04:06:12;34.10;;;24.10;;
61569;SDS011;47462;59.172;17.196;2022-08-19T04:08:40;29.35;;;23.05;;
61569;SDS011;47462;59.172;17.196;2022-08-19T04:11:10;28.77;;;23.77;;
61569;SDS011;47462;59.172;17.196;2022-08-19T04:13:37;30.98;;;23.67;;
61569;SDS011;47462;59.172;17.196;2022-08-19T04:16:03;27.60;;;22.67;;
61569;SDS011;47462;59.172;17.196;2022-08-19T04:18:30;32.45;;;22.27;;
61569;SDS011;47462;59.172;17.196;2022-08-19T04:20:57;34.45;;;21.80;;
61569;SDS011;47462;59.172;17.196;2022-08-19T04:23:23;27.83;;;21.50;;
61569;SDS011;47462;59.172;17.196;2022-08-19T04:25:49;28.67;;;20.92;;
61569;SDS011;47462;59.172;17.196;2022-08-19T04:28:14;30.58;;;21.48;;
61569;SDS011;47462;59.172;17.196;2022-08-19T04:30:40;35.00;;;22.58;;
61569;SDS011;47462;59.172;17.196;2022-08-19T04:33:07;29.20;;;22.45;;
61569;SDS011;47462;59.172;17.196;2022-08-19T04:35:40;31.50;;;21.65;;
61569;SDS011;47462;59.172;17.196;2022-08-19T04:38:08;30.15;;;21.17;;
61569;SDS011;47462;59.172;17.196;2022-08-19T04:40:34;30.92;;;22.05;;
61569;SDS011;47462;59.172;17.196;2022-08-19T04:43:22;32.80;;;22.85;;
61569;SDS011;47462;59.172;17.196;2022-08-19T04:45:47;33.95;;;22.42;;
61569;SDS011;47462;59.172;17.196;2022-08-19T04:48:13;33.42;;;23.02;;
61569;SDS011;47462;59.172;17.196;2022-08-19T04:50:42;29.70;;;21.98;;
61569;SDS011;47462;59.172;17.196;2022-08-19T04:53:08;37.40;;;24.33;;
61569;SDS011;47462;59.172;17.196;2022-08-19T04:55:34;35.10;;;22.75;;
61569;SDS011;47462;59.172;17.196;2022-08-19T04:58:03;33.38;;;23.30;;
61569;SDS011;47462;59.172;17.196;2022-08-19T05:00:28;29.88;;;22.25;;
61569;SDS011;47462;59.172;17.196;2022-08-19T05:02:54;35.05;;;23.70;;
61569;SDS011;47462;59.172;17.196;2022-08-19T05:05:19;31.83;;;22.48;;
61569;SDS011;47462;59.172;17.196;2022-08-19T05:07:45;30.10;;;21.60;;
61569;SDS011;47462;59.172;17.196;2022-08-19T05:10:11;29.63;;;21.10;;
61569;SDS011;47462;59.172;17.196;2022-08-19T05:12:37;27.45;;;19.83;;
61569;SDS011;47462;59.172;17.196;2022-08-19T05:15:04;29.80;;;20.92;;
61569;SDS011;47462;59.172;17.196;2022-08-19T05:17:30;31.58;;;22.42;;
61569;SDS011;47462;59.172;17.196;2022-08-19T05:19:56;29.75;;;21.30;;
61569;SDS011;47462;59.172;17.196;2022-08-19T05:22:41;30.98;;;21.90;;
61569;SDS011;47462;59.172;17.196;2022-08-19T05:25:09;27.63;;;21.30;;
61569;SDS011;47462;59.172;17.196;2022-08-19T05:27:37;28.25;;;21.08;;
61569;SDS011;47462;59.172;17.196;2022-08-19T05:30:04;31.05;;;21.80;;
61569;SDS011;47462;59.172;17.196;2022-08-19T05:32:30;23.55;;;18.42;;
61569;SDS011;47462;59.172;17.196;2022-08-19T05:34:55;27.42;;;20.05;;
61569;SDS011;47462;59.172;17.196;2022-08-19T05:37:21;26.67;;;19.23;;
61569;SDS011;47462;59.172;17.196;2022-08-19T05:39:47;23.55;;;18.92;;
61569;SDS011;47462;59.172;17.196;2022-08-19T05:42:14;26.27;;;19.52;;
61569;SDS011;47462;59.172;17.196;2022-08-19T05:44:41;24.77;;;19.92;;
61569;SDS011;47462;59.172;17.196;2022-08-19T05:47:12;23.05;;;19.63;;
61569;SDS011;47462;59.172;17.196;2022-08-19T05:49:39;24.70;;;18.55;;
61569;SDS011;47462;59.172;17.196;2022-08-19T05:52:08;23.67;;;19.50;;
61569;SDS011;47462;59.172;17.196;2022-08-19T05:54:37;23.23;;;18.48;;
61569;SDS011;47462;59.172;17.196;2022-08-19T05:57:06;26.65;;;19.65;;
61569;SDS011;47462;59.172;17.196;2022-08-19T05:59:32;26.15;;;19.77;;
61569;SDS011;47462;59.172;17.196;2022-08-19T06:02:00;25.80;;;20.70;;
61569;SDS011;47462;59.172;17.196;2022-08-19T06:04:26;27.50;;;20.77;;
61569;SDS011;47462;59.172;17.196;2022-08-19T06:06:52;27.33;;;20.70;;
61569;SDS011;47462;59.172;17.196;2022-08-19T06:09:19;24.83;;;19.17;;
61569;SDS011;47462;59.172;17.196;2022-08-19T06:11:46;24.40;;;19.85;;
61569;SDS011;47462;59.172;17.196;2022-08-19T06:14:23;29.20;;;21.25;;
61569;SDS011;47462;59.172;17.196;2022-08-19T06:16:50;22.27;;;19.63;;
61569;SDS011;47462;59.172;17.196;2022-08-19T06:19:19;24.45;;;19.33;;
61569;SDS011;47462;59.172;17.196;2022-08-19T06:21:48;22.20;;;17.08;;
61569;SDS011;47462;59.172;17.196;2022-08-19T06:24:16;22.92;;;19.25;;
61569;SDS011;47462;59.172;17.196;2022-08-19T06:26:48;23.85;;;18.77;;
61569;SDS011;47462;59.172;17.196;2022-08-19T06:29:16;20.80;;;18.27;;
61569;SDS011;47462;59.172;17.196;2022-08-19T06:31:44;24.40;;;19.05;;
61569;SDS011;47462;59.172;17.196;2022-08-19T06:34:12;21.90;;;18.50;;
61569;SDS011;47462;59.172;17.196;2022-08-19T06:36:40;22.08;;;17.05;;
61569;SDS011;47462;59.172;17.196;2022-08-19T06:39:13;22.30;;;18.05;;
61569;SDS011;47462;59.172;17.196;2022-08-19T06:41:41;20.95;;;16.92;;
61569;SDS011;47462;59.172;17.196;2022-08-19T06:44:12;19.80;;;16.52;;
61569;SDS011;47462;59.172;17.196;2022-08-19T06:46:38;18.25;;;16.33;;
61569;SDS011;47462;59.172;17.196;2022-08-19T06:49:05;23.55;;;16.27;;
61569;SDS011;47462;59.172;17.196;2022-08-19T06:51:33;22.08;;;16.48;;
61569;SDS011;47462;59.172;17.196;2022-08-19T06:53:59;25.13;;;18.48;;
61569;SDS011;47462;59.172;17.196;2022-08-19T06:56:26;22.05;;;17.10;;
61569;SDS011;47462;59.172;17.196;2022-08-19T06:59:04;21.40;;;16.58;;
61569;SDS011;47462;59.172;17.196;2022-08-19T07:01:38;19.90;;;16.33;;
61569;SDS011;47462;59.172;17.196;2022-08-19T07:04:10;17.83;;;15.98;;
61569;SDS011;47462;59.172;17.196;2022-08-19T07:06:37;21.25;;;16.17;;
61569;SDS011;47462;59.172;17.196;2022-08-19T07:09:06;25.58;;;16.25;;
61569;SDS011;47462;59.172;17.196;2022-08-19T07:11:32;16.67;;;14.98;;
61569;SDS011;47462;59.172;17.196;2022-08-19T07:13:59;20.17;;;16.52;;
61569;SDS011;47462;59.172;17.196;2022-08-19T07:16:25;16.92;;;14.95;;
61569;SDS011;47462;59.172;17.196;2022-08-19T07:18:51;20.90;;;14.88;;
61569;SDS011;47462;59.172;17.196;2022-08-19T07:21:18;19.02;;;14.98;;
61569;SDS011;47462;59.172;17.196;2022-08-19T07:23:46;19.65;;;15.10;;
61569;SDS011;47462;59.172;17.196;2022-08-19T07:26:15;19.83;;;14.65;;
61569;SDS011;47462;59.172;17.196;2022-08-19T07:28:48;15.73;;;13.52;;
61569;SDS011;47462;59.172;17.196;2022-08-19T07:31:17;18.13;;;14.48;;
61569;SDS011;47462;59.172;17.196;2022-08-19T07:33:46;18.88;;;13.10;;
61569;SDS011;47462;59.172;17.196;2022-08-19T07:36:13;18.77;;;14.23;;
61569;SDS011;47462;59.172;17.196;2022-08-19T07:38:41;15.68;;;14.02;;
61569;SDS011;47462;59.172;17.196;2022-08-19T07:41:12;15.68;;;14.00;;
61569;SDS011;47462;59.172;17.196;2022-08-19T07:43:39;16.52;;;13.32;;
61569;SDS011;47462;59.172;17.196;2022-08-19T07:46:05;13.43;;;12.02;;
61569;SDS011;47462;59.172;17.196;2022-08-19T07:48:31;13.15;;;11.63;;
61569;SDS011;47462;59.172;17.196;2022-08-19T07:50:58;13.90;;;12.13;;
61569;SDS011;47462;59.172;17.196;2022-08-19T07:53:27;14.60;;;13.10;;
61569;SDS011;47462;59.172;17.196;2022-08-19T07:55:54;13.15;;;11.93;;
61569;SDS011;47462;59.172;17.196;2022-08-19T07:58:21;15.23;;;12.50;;
61569;SDS011;47462;59.172;17.196;2022-08-19T08:00:48;14.02;;;12.10;;
61569;SDS011;47462;59.172;17.196;2022-08-19T08:03:16;17.63;;;12.25;;
61569;SDS011;47462;59.172;17.196;2022-08-19T08:05:43;14.10;;;11.77;;
61569;SDS011;47462;59.172;17.196;2022-08-19T08:08:27;11.88;;;10.68;;
61569;SDS011;47462;59.172;17.196;2022-08-19T08:11:11;13.88;;;11.32;;
61569;SDS011;47462;59.172;17.196;2022-08-19T08:13:37;12.15;;;10.35;;
61569;SDS011;47462;59.172;17.196;2022-08-19T08:16:03;12.93;;;10.43;;
61569;SDS011;47462;59.172;17.196;2022-08-19T08:18:29;16.38;;;10.52;;
61569;SDS011;47462;59.172;17.196;2022-08-19T08:20:55;25.33;;;10.85;;
61569;SDS011;47462;59.172;17.196;2022-08-19T08:23:21;12.02;;;10.00;;
61569;SDS011;47462;59.172;17.196;2022-08-19T08:25:47;13.40;;;9.90;;
61569;SDS011;47462;59.172;17.196;2022-08-19T08:28:14;12.32;;;9.70;;
61569;SDS011;47462;59.172;17.196;2022-08-19T08:30:40;10.32;;;8.65;;
61569;SDS011;47462;59.172;17.196;2022-08-19T08:33:08;13.38;;;9.05;;
61569;SDS011;47462;59.172;17.196;2022-08-19T08:35:34;11.32;;;8.20;;
61569;SDS011;47462;59.172;17.196;2022-08-19T08:38:00;9.55;;;8.43;;
61569;SDS011;47462;59.172;17.196;2022-08-19T08:40:28;11.85;;;8.00;;
61569;SDS011;47462;59.172;17.196;2022-08-19T08:43:07;9.07;;;7.90;;
61569;SDS011;47462;59.172;17.196;2022-08-19T08:45:52;10.10;;;8.02;;
61569;SDS011;47462;59.172;17.196;2022-08-19T08:48:30;15.35;;;7.95;;
61569;SDS011;47462;59.172;17.196;2022-08-19T08:51:02;8.77;;;7.88;;
61569;SDS011;47462;59.172;17.196;2022-08-19T08:53:31;8.35;;;7.45;;
61569;SDS011;47462;59.172;17.196;2022-08-19T08:55:58;9.55;;;7.80;;
61569;SDS011;47462;59.172;17.196;2022-08-19T08:58:32;8.82;;;7.93;;
61569;SDS011;47462;59.172;17.196;2022-08-19T09:01:07;11.30;;;7.75;;
61569;SDS011;47462;59.172;17.196;2022-08-19T09:03:36;10.90;;;7.47;;
61569;SDS011;47462;59.172;17.196;2022-08-19T09:06:03;7.95;;;6.95;;
61569;SDS011;47462;59.172;17.196;2022-08-19T09:11:11;11.38;;;6.80;;
61569;SDS011;47462;59.172;17.196;2022-08-19T09:14:08;7.05;;;6.35;;
61569;SDS011;47462;59.172;17.196;2022-08-19T09:16:43;8.73;;;6.55;;
61569;SDS011;47462;59.172;17.196;2022-08-19T09:19:08;9.63;;;7.10;;
61569;SDS011;47462;59.172;17.196;2022-08-19T09:21:35;9.85;;;6.50;;
61569;SDS011;47462;59.172;17.196;2022-08-19T09:24:03;9.27;;;6.18;;
61569;SDS011;47462;59.172;17.196;2022-08-19T09:26:30;7.85;;;5.55;;
61569;SDS011;47462;59.172;17.196;2022-08-19T09:28:59;8.13;;;5.57;;
61569;SDS011;47462;59.172;17.196;2022-08-19T09:31:27;11.50;;;6.00;;
61569;SDS011;47462;59.172;17.196;2022-08-19T09:33:54;7.65;;;5.57;;
61569;SDS011;47462;59.172;17.196;2022-08-19T09:36:23;9.82;;;5.45;;
61569;SDS011;47462;59.172;17.196;2022-08-19T09:38:51;6.30;;;5.63;;
61569;SDS011;47462;59.172;17.196;2022-08-19T09:41:18;8.10;;;5.30;;
61569;SDS011;47462;59.172;17.196;2022-08-19T09:43:47;9.95;;;5.57;;
61569;SDS011;47462;59.172;17.196;2022-08-19T09:46:16;7.85;;;5.53;;
61569;SDS011;47462;59.172;17.196;2022-08-19T09:48:44;9.57;;;5.43;;
61569;SDS011;47462;59.172;17.196;2022-08-19T09:51:14;11.77;;;5.15;;
61569;SDS011;47462;59.172;17.196;2022-08-19T09:53:41;8.65;;;5.55;;
61569;SDS011;47462;59.172;17.196;2022-08-19T09:56:08;11.25;;;5.55;;
61569;SDS011;47462;59.172;17.196;2022-08-19T09:58:35;9.48;;;5.50;;
61569;SDS011;47462;59.172;17.196;2022-08-19T10:01:01;5.63;;;4.80;;
61569;SDS011;47462;59.172;17.196;2022-08-19T10:03:28;7.82;;;4.53;;
61569;SDS011;47462;59.172;17.196;2022-08-19T10:05:54;8.15;;;4.90;;
61569;SDS011;47462;59.172;17.196;2022-08-19T10:08:22;9.65;;;5.00;;
61569;SDS011;47462;59.172;17.196;2022-08-19T10:10:54;6.10;;;4.93;;
61569;SDS011;47462;59.172;17.196;2022-08-19T10:13:21;9.50;;;5.05;;
61569;SDS011;47462;59.172;17.196;2022-08-19T10:15:50;8.70;;;4.70;;
61569;SDS011;47462;59.172;17.196;2022-08-19T10:18:17;7.70;;;4.80;;
61569;SDS011;47462;59.172;17.196;2022-08-19T10:20:45;10.45;;;4.53;;
61569;SDS011;47462;59.172;17.196;2022-08-19T10:23:11;9.00;;;4.40;;
61569;SDS011;47462;59.172;17.196;2022-08-19T10:25:37;9.63;;;4.55;;
61569;SDS011;47462;59.172;17.196;2022-08-19T10:28:03;6.93;;;4.70;;
61569;SDS011;47462;59.172;17.196;2022-08-19T10:30:30;11.45;;;4.05;;
61569;SDS011;47462;59.172;17.196;2022-08-19T10:32:57;10.95;;;4.00;;
61569;SDS011;47462;59.172;17.196;2022-08-19T10:35:22;8.38;;;4.20;;
61569;SDS011;47462;59.172;17.196;2022-08-19T10:37:50;6.63;;;4.38;;
61569;SDS011;47462;59.172;17.196;2022-08-19T10:40:15;5.85;;;3.83;;
61569;SDS011;47462;59.172;17.196;2022-08-19T10:42:41;5.10;;;3.53;;
61569;SDS011;47462;59.172;17.196;2022-08-19T10:45:06;8.13;;;3.80;;
61569;SDS011;47462;59.172;17.196;2022-08-19T10:47:34;12.13;;;3.95;;
61569;SDS011;47462;59.172;17.196;2022-08-19T10:50:00;5.03;;;3.50;;
61569;SDS011;47462;59.172;17.196;2022-08-19T10:52:45;7.80;;;3.97;;
61569;SDS011;47462;59.172;17.196;2022-08-19T10:55:11;7.03;;;3.85;;
61569;SDS011;47462;59.172;17.196;2022-08-19T10:57:55;8.25;;;3.60;;
61569;SDS011;47462;59.172;17.196;2022-08-19T11:00:21;7.70;;;3.63;;
61569;SDS011;47462;59.172;17.196;2022-08-19T11:02:48;7.20;;;3.72;;
61569;SDS011;47462;59.172;17.196;2022-08-19T11:05:14;8.00;;;3.53;;
61569;SDS011;47462;59.172;17.196;2022-08-19T11:07:40;6.50;;;3.50;;
61569;SDS011;47462;59.172;17.196;2022-08-19T11:10:08;9.35;;;3.33;;
61569;SDS011;47462;59.172;17.196;2022-08-19T11:12:38;6.95;;;3.25;;
61569;SDS011;47462;59.172;17.196;2022-08-19T11:15:04;6.70;;;3.30;;
61569;SDS011;47462;59.172;17.196;2022-08-19T11:17:35;7.97;;;3.28;;
61569;SDS011;47462;59.172;17.196;2022-08-19T11:20:01;7.38;;;3.80;;
61569;SDS011;47462;59.172;17.196;2022-08-19T11:22:29;8.40;;;3.67;;
61569;SDS011;47462;59.172;17.196;2022-08-19T11:24:55;7.47;;;3.58;;
61569;SDS011;47462;59.172;17.196;2022-08-19T11:27:20;5.72;;;3.30;;
61569;SDS011;47462;59.172;17.196;2022-08-19T11:29:46;4.68;;;3.03;;
61569;SDS011;47462;59.172;17.196;2022-08-19T11:32:12;3.75;;;3.00;;
61569;SDS011;47462;59.172;17.196;2022-08-19T11:34:37;10.30;;;3.47;;
61569;SDS011;47462;59.172;17.196;2022-08-19T11:37:04;4.55;;;2.65;;
61569;SDS011;47462;59.172;17.196;2022-08-19T11:39:31;6.55;;;2.85;;
61569;SDS011;47462;59.172;17.196;2022-08-19T11:41:59;7.13;;;3.45;;
61569;SDS011;47462;59.172;17.196;2022-08-19T11:44:26;8.60;;;2.92;;
61569;SDS011;47462;59.172;17.196;2022-08-19T11:46:51;6.95;;;2.88;;
61569;SDS011;47462;59.172;17.196;2022-08-19T11:49:18;5.53;;;3.40;;
61569;SDS011;47462;59.172;17.196;2022-08-19T11:51:44;6.45;;;2.90;;
61569;SDS011;47462;59.172;17.196;2022-08-19T11:54:11;6.75;;;3.25;;
61569;SDS011;47462;59.172;17.196;2022-08-19T11:56:39;7.85;;;3.30;;
61569;SDS011;47462;59.172;17.196;2022-08-19T11:59:05;4.97;;;3.42;;
61569;SDS011;47462;59.172;17.196;2022-08-19T12:01:32;4.82;;;3.10;;
61569;SDS011;47462;59.172;17.196;2022-08-19T12:03:57;8.07;;;3.25;;
61569;SDS011;47462;59.172;17.196;2022-08-19T12:06:25;5.82;;;2.85;;
61569;SDS011;47462;59.172;17.196;2022-08-19T12:08:57;6.82;;;3.33;;
61569;SDS011;47462;59.172;17.196;2022-08-19T12:11:25;10.60;;;3.58;;
61569;SDS011;47462;59.172;17.196;2022-08-19T12:13:51;6.07;;;3.15;;
61569;SDS011;47462;59.172;17.196;2022-08-19T12:16:18;10.23;;;3.83;;
61569;SDS011;47462;59.172;17.196;2022-08-19T12:18:49;6.93;;;3.55;;
61569;SDS011;47462;59.172;17.196;2022-08-19T12:21:22;7.97;;;3.22;;
61569;SDS011;47462;59.172;17.196;2022-08-19T12:23:52;6.85;;;3.38;;
61569;SDS011;47462;59.172;17.196;2022-08-19T12:26:17;8.25;;;3.42;;
61569;SDS011;47462;59.172;17.196;2022-08-19T12:28:43;8.65;;;3.50;;
61569;SDS011;47462;59.172;17.196;2022-08-19T12:31:09;12.05;;;2.92;;
61569;SDS011;47462;59.172;17.196;2022-08-19T12:33:37;10.88;;;3.30;;
61569;SDS011;47462;59.172;17.196;2022-08-19T12:36:04;5.28;;;2.92;;
61569;SDS011;47462;59.172;17.196;2022-08-19T12:38:32;9.73;;;3.70;;
61569;SDS011;47462;59.172;17.196;2022-08-19T12:40:59;7.57;;;3.15;;
61569;SDS011;47462;59.172;17.196;2022-08-19T12:43:25;9.30;;;3.20;;
61569;SDS011;47462;59.172;17.196;2022-08-19T12:45:51;9.05;;;3.53;;
61569;SDS011;47462;59.172;17.196;2022-08-19T12:48:16;9.10;;;2.80;;
61569;SDS011;47462;59.172;17.196;2022-08-19T12:50:42;7.97;;;3.00;;
61569;SDS011;47462;59.172;17.196;2022-08-19T12:53:10;7.68;;;2.60;;
61569;SDS011;47462;59.172;17.196;2022-08-19T12:55:36;8.20;;;2.78;;
61569;SDS011;47462;59.172;17.196;2022-08-19T12:58:02;7.35;;;2.70;;
61569;SDS011;47462;59.172;17.196;2022-08-19T13:00:27;6.28;;;2.90;;
61569;SDS011;47462;59.172;17.196;2022-08-19T13:02:53;6.65;;;3.20;;
61569;SDS011;47462;59.172;17.196;2022-08-19T13:05:22;8.35;;;2.80;;
61569;SDS011;47462;59.172;17.196;2022-08-19T13:07:50;8.95;;;3.10;;
61569;SDS011;47462;59.172;17.196;2022-08-19T13:10:18;5.80;;;3.13;;
61569;SDS011;47462;59.172;17.196;2022-08-19T13:12:45;8.02;;;3.03;;
61569;SDS011;47462;59.172;17.196;2022-08-19T13:15:13;10.48;;;3.10;;
61569;SDS011;47462;59.172;17.196;2022-08-19T13:17:40;7.72;;;2.90;;
61569;SDS011;47462;59.172;17.196;2022-08-19T13:20:09;10.27;;;2.90;;
61569;SDS011;47462;59.172;17.196;2022-08-19T13:22:35;6.63;;;3.00;;
61569;SDS011;47462;59.172;17.196;2022-08-19T13:25:02;9.13;;;3.25;;
61569;SDS011;47462;59.172;17.196;2022-08-19T13:27:28;9.23;;;3.00;;
61569;SDS011;47462;59.172;17.196;2022-08-19T13:29:54;6.97;;;3.13;;
61569;SDS011;47462;59.172;17.196;2022-08-19T13:32:38;5.45;;;2.72;;
61569;SDS011;47462;59.172;17.196;2022-08-19T13:35:22;5.72;;;3.00;;
61569;SDS011;47462;59.172;17.196;2022-08-19T13:37:47;5.85;;;3.00;;
61569;SDS011;47462;59.172;17.196;2022-08-19T13:40:17;8.18;;;2.75;;
61569;SDS011;47462;59.172;17.196;2022-08-19T13:42:45;6.32;;;2.60;;
61569;SDS011;47462;59.172;17.196;2022-08-19T13:45:13;8.32;;;2.90;;
61569;SDS011;47462;59.172;17.196;2022-08-19T13:47:41;7.60;;;2.97;;
61569;SDS011;47462;59.172;17.196;2022-08-19T13:50:10;8.13;;;3.25;;
61569;SDS011;47462;59.172;17.196;2022-08-19T13:52:37;11.27;;;3.70;;
61569;SDS011;47462;59.172;17.196;2022-08-19T13:55:04;10.63;;;3.25;;
61569;SDS011;47462;59.172;17.196;2022-08-19T13:57:30;10.00;;;3.10;;
61569;SDS011;47462;59.172;17.196;2022-08-19T13:59:56;8.98;;;3.00;;
61569;SDS011;47462;59.172;17.196;2022-08-19T14:02:23;4.45;;;3.22;;
61569;SDS011;47462;59.172;17.196;2022-08-19T14:04:48;9.93;;;3.33;;
61569;SDS011;47462;59.172;17.196;2022-08-19T14:07:14;9.70;;;3.33;;
61569;SDS011;47462;59.172;17.196;2022-08-19T14:09:40;10.43;;;3.85;;
61569;SDS011;47462;59.172;17.196;2022-08-19T14:12:05;6.63;;;3.08;;
61569;SDS011;47462;59.172;17.196;2022-08-19T14:14:31;5.22;;;3.03;;
61569;SDS011;47462;59.172;17.196;2022-08-19T14:16:57;11.63;;;3.53;;
61569;SDS011;47462;59.172;17.196;2022-08-19T14:19:22;5.82;;;3.75;;
61569;SDS011;47462;59.172;17.196;2022-08-19T14:21:48;10.75;;;3.15;;
61569;SDS011;47462;59.172;17.196;2022-08-19T14:24:13;9.95;;;3.35;;